Time;durP1;ratioP1;P1;durP2;ratioP2;P2;SDS_P1;SDS_P2;PMS_P1;PMS_P2;Temp;Humidity;BMP_temperature;BMP_pressure;BME280_temperature;BME280_humidity;BME280_pressure;Samples;Min_cycle;Max_cycle;Signal;HPM_P1;HPM_P2
2023/10/24 00:00:18;;;;;;;21.38;11.65;;;14.00;99.90;;;;;;5045498;28;20052;-74
2023/10/24 00:02:44;;;;;;;21.95;11.63;;;14.10;99.90;;;;;;5041373;28;20107;-74
2023/10/24 00:05:10;;;;;;;19.70;11.30;;;14.20;99.90;;;;;;5045636;28;20051;-74
2023/10/24 00:07:36;;;;;;;17.75;10.27;;;14.10;99.90;;;;;;5045821;28;20034;-74
2023/10/24 00:10:02;;;;;;;14.27;9.55;;;14.10;99.90;;;;;;5044444;28;20495;-74
2023/10/24 00:12:29;;;;;;;15.73;9.18;;;14.10;99.90;;;;;;5042374;28;20041;-74
2023/10/24 00:14:55;;;;;;;17.10;9.27;;;14.20;99.90;;;;;;5043842;28;20033;-74
2023/10/24 00:17:22;;;;;;;14.73;9.43;;;14.20;99.90;;;;;;5044818;28;20025;-74
2023/10/24 00:19:48;;;;;;;13.00;8.63;;;14.10;99.90;;;;;;5043456;28;20025;-74
2023/10/24 00:22:13;;;;;;;10.80;7.15;;;14.10;99.90;;;;;;5043577;28;20033;-74
2023/10/24 00:24:39;;;;;;;12.50;7.35;;;14.10;99.90;;;;;;5044535;28;20029;-74
2023/10/24 00:27:04;;;;;;;13.60;7.40;;;14.10;99.90;;;;;;5046650;28;20720;-74
2023/10/24 00:29:30;;;;;;;10.20;6.13;;;14.10;99.90;;;;;;5042059;28;20108;-74
2023/10/24 00:31:56;;;;;;;7.63;5.50;;;14.10;99.90;;;;;;5043778;28;20532;-74
2023/10/24 00:34:22;;;;;;;10.68;6.32;;;14.00;99.90;;;;;;5043365;28;20017;-73
2023/10/24 00:36:48;;;;;;;10.25;5.53;;;14.00;99.90;;;;;;5046536;28;20025;-74
2023/10/24 00:39:13;;;;;;;10.93;5.38;;;13.90;99.90;;;;;;5041250;28;20386;-74
2023/10/24 00:41:39;;;;;;;12.35;7.43;;;13.90;99.90;;;;;;5041680;28;20032;-74
2023/10/24 00:44:07;;;;;;;7.50;5.10;;;14.00;99.90;;;;;;5045600;28;20485;-74
2023/10/24 00:46:34;;;;;;;6.22;4.50;;;14.00;99.90;;;;;;5043640;28;20470;-74
2023/10/24 00:49:01;;;;;;;7.82;5.60;;;14.00;99.90;;;;;;5043319;28;20037;-74
2023/10/24 00:51:26;;;;;;;7.03;5.40;;;14.10;99.90;;;;;;5044225;28;20025;-74
2023/10/24 00:53:54;;;;;;;6.47;5.07;;;14.00;99.90;;;;;;5043430;28;20059;-74
2023/10/24 00:56:21;;;;;;;7.97;4.75;;;14.00;99.90;;;;;;5041692;28;20025;-74
2023/10/24 00:58:48;;;;;;;8.88;5.65;;;14.00;99.90;;;;;;5046478;28;20075;-74
2023/10/24 01:01:14;;;;;;;8.55;5.10;;;14.00;99.90;;;;;;5039470;28;20025;-74
2023/10/24 01:03:42;;;;;;;7.45;5.72;;;14.00;99.90;;;;;;5042739;28;20428;-74
2023/10/24 01:06:09;;;;;;;7.90;5.18;;;14.00;99.90;;;;;;5042836;28;20051;-74
2023/10/24 01:08:36;;;;;;;7.68;4.75;;;14.00;99.90;;;;;;5042658;28;20036;-74
2023/10/24 01:11:02;;;;;;;9.15;5.10;;;14.00;99.90;;;;;;5043326;28;20037;-74
2023/10/24 01:13:28;;;;;;;9.55;5.85;;;14.00;99.90;;;;;;5043774;28;20025;-74
2023/10/24 01:15:54;;;;;;;8.15;5.45;;;13.90;99.90;;;;;;5042539;28;20021;-75
2023/10/24 01:18:19;;;;;;;6.82;5.13;;;13.80;99.90;;;;;;5046153;28;20424;-74
2023/10/24 01:20:45;;;;;;;9.15;5.60;;;13.80;99.90;;;;;;5042975;28;20029;-74
2023/10/24 01:23:11;;;;;;;11.50;5.55;;;13.80;99.90;;;;;;5042050;28;20416;-74
2023/10/24 01:25:41;;;;;;;9.43;5.95;;;13.70;99.90;;;;;;5044201;28;20065;-75
2023/10/24 01:28:09;;;;;;;10.05;6.43;;;13.80;99.90;;;;;;5042690;28;20111;-74
2023/10/24 01:30:39;;;;;;;8.02;6.45;;;13.80;99.90;;;;;;5044080;28;20033;-75
2023/10/24 01:33:05;;;;;;;11.15;6.40;;;13.90;99.90;;;;;;5045311;28;20370;-74
2023/10/24 01:35:31;;;;;;;8.85;6.72;;;13.90;99.90;;;;;;5044007;28;20032;-74
2023/10/24 01:37:57;;;;;;;8.18;6.10;;;13.90;99.90;;;;;;5044552;28;20086;-74
2023/10/24 01:40:22;;;;;;;7.57;5.70;;;14.00;99.90;;;;;;5038955;28;20100;-75
2023/10/24 01:42:48;;;;;;;10.35;6.40;;;14.00;99.90;;;;;;5042602;28;20585;-75
2023/10/24 01:45:17;;;;;;;10.43;7.00;;;14.00;99.90;;;;;;5041898;28;20100;-75
2023/10/24 01:47:43;;;;;;;14.90;6.57;;;14.00;99.90;;;;;;5044375;28;20052;-75
2023/10/24 01:50:09;;;;;;;9.00;6.85;;;14.00;99.90;;;;;;5040113;28;20067;-75
2023/10/24 01:52:35;;;;;;;10.20;6.95;;;14.10;99.90;;;;;;5042219;28;20048;-74
2023/10/24 01:55:01;;;;;;;6.85;5.35;;;14.20;99.90;;;;;;5045850;28;20358;-74
2023/10/24 01:57:27;;;;;;;12.68;7.05;;;14.20;99.90;;;;;;5043702;28;20478;-75
2023/10/24 01:59:53;;;;;;;11.50;6.35;;;14.20;99.90;;;;;;5041856;28;20025;-75
2023/10/24 02:02:18;;;;;;;10.27;7.65;;;14.20;99.90;;;;;;5044368;28;20505;-74
2023/10/24 02:04:44;;;;;;;14.80;6.72;;;14.20;99.90;;;;;;5044788;28;20477;-74
2023/10/24 02:07:10;;;;;;;11.48;6.65;;;14.20;99.90;;;;;;5045367;28;20540;-75
2023/10/24 02:09:36;;;;;;;11.23;7.20;;;14.30;99.90;;;;;;5043234;28;20033;-74
2023/10/24 02:12:02;;;;;;;14.00;7.63;;;14.20;99.90;;;;;;5041039;28;20029;-74
2023/10/24 02:14:29;;;;;;;14.98;8.23;;;14.20;99.90;;;;;;5042880;28;20114;-74
2023/10/24 02:16:54;;;;;;;13.60;7.22;;;14.20;99.90;;;;;;5042707;28;20033;-74
2023/10/24 02:19:20;;;;;;;13.45;7.63;;;14.00;99.90;;;;;;5038964;28;20413;-74
2023/10/24 02:21:46;;;;;;;12.60;8.43;;;14.10;99.90;;;;;;5041181;28;20083;-74
2023/10/24 02:24:11;;;;;;;13.25;9.68;;;14.00;99.90;;;;;;5041273;28;20040;-74
2023/10/24 02:26:38;;;;;;;13.27;8.73;;;14.00;99.90;;;;;;5044536;28;20025;-75
2023/10/24 02:29:03;;;;;;;14.05;9.38;;;13.90;99.90;;;;;;5046216;28;20443;-74
2023/10/24 02:31:29;;;;;;;16.90;10.55;;;13.80;99.90;;;;;;5046373;28;20135;-74
2023/10/24 02:33:55;;;;;;;12.27;9.63;;;13.80;99.90;;;;;;5047043;28;20029;-74
2023/10/24 02:36:21;;;;;;;13.77;9.63;;;13.90;99.90;;;;;;5046662;28;20473;-74
2023/10/24 02:38:46;;;;;;;14.15;10.75;;;13.80;99.90;;;;;;5047348;28;20059;-74
2023/10/24 02:41:13;;;;;;;14.38;10.90;;;13.80;99.90;;;;;;5045998;28;20423;-74
2023/10/24 02:43:38;;;;;;;14.27;10.27;;;13.80;99.90;;;;;;5046456;28;20031;-74
2023/10/24 02:46:05;;;;;;;19.45;12.07;;;13.80;99.90;;;;;;5048129;28;20386;-74
2023/10/24 02:48:32;;;;;;;14.57;11.13;;;13.90;99.90;;;;;;5046779;28;20094;-74
2023/10/24 02:50:58;;;;;;;16.02;10.85;;;13.90;99.90;;;;;;5046086;28;20056;-74
2023/10/24 02:53:24;;;;;;;17.67;11.32;;;13.90;99.90;;;;;;5045981;28;20104;-74
2023/10/24 02:55:51;;;;;;;20.35;12.35;;;13.90;99.90;;;;;;5046291;28;20104;-74
2023/10/24 02:58:17;;;;;;;20.38;12.73;;;14.00;99.90;;;;;;5047190;28;20057;-74
2023/10/24 03:00:45;;;;;;;15.68;11.10;;;13.90;99.90;;;;;;5044924;28;20029;-74
2023/10/24 03:03:11;;;;;;;17.98;12.27;;;13.80;99.90;;;;;;5046501;28;20017;-74
2023/10/24 03:05:37;;;;;;;22.88;13.20;;;13.70;99.90;;;;;;5047173;28;20037;-74
2023/10/24 03:08:04;;;;;;;17.02;12.07;;;13.80;99.90;;;;;;5044948;28;20014;-74
2023/10/24 03:10:30;;;;;;;17.60;11.25;;;13.80;99.90;;;;;;5044930;28;20470;-74
2023/10/24 03:12:56;;;;;;;16.38;11.40;;;13.80;99.90;;;;;;5045117;28;20041;-74
2023/10/24 03:15:22;;;;;;;18.02;11.63;;;13.70;99.90;;;;;;5047580;28;20159;-74
2023/10/24 03:17:47;;;;;;;19.90;10.68;;;13.70;99.90;;;;;;5047907;28;20108;-74
2023/10/24 03:20:14;;;;;;;14.32;10.50;;;13.80;99.90;;;;;;5046733;28;20425;-74
2023/10/24 03:22:40;;;;;;;15.70;10.02;;;13.80;99.90;;;;;;5042794;28;20060;-74
2023/10/24 03:25:06;;;;;;;13.80;10.05;;;13.80;99.90;;;;;;5046605;28;20665;-74
2023/10/24 03:27:31;;;;;;;13.60;10.10;;;13.80;99.90;;;;;;5042229;28;20061;-73
2023/10/24 03:29:57;;;;;;;13.43;10.05;;;13.80;99.90;;;;;;5046843;28;20033;-74
2023/10/24 03:32:23;;;;;;;14.00;10.30;;;13.80;99.90;;;;;;5045679;28;20397;-73
2023/10/24 03:34:49;;;;;;;17.30;10.23;;;13.80;99.90;;;;;;5045591;28;20466;-74
2023/10/24 03:37:17;;;;;;;16.08;10.82;;;13.70;99.90;;;;;;5043661;28;20036;-73
2023/10/24 03:39:43;;;;;;;14.23;10.88;;;13.70;99.90;;;;;;5042779;28;20059;-74
2023/10/24 03:42:13;;;;;;;13.90;10.75;;;13.70;99.90;;;;;;5045169;28;20021;-73
2023/10/24 03:44:40;;;;;;;17.65;10.93;;;13.70;99.90;;;;;;5042623;28;20025;-73
2023/10/24 03:47:05;;;;;;;16.60;11.77;;;13.70;99.90;;;;;;5044695;28;20382;-74
2023/10/24 03:49:31;;;;;;;14.50;10.65;;;13.60;99.90;;;;;;5045015;28;20037;-74
2023/10/24 03:51:57;;;;;;;17.77;11.45;;;13.70;99.90;;;;;;5043814;28;20385;-74
2023/10/24 03:54:22;;;;;;;16.35;10.80;;;13.70;99.90;;;;;;5045759;28;20084;-74
2023/10/24 03:56:48;;;;;;;14.95;11.50;;;13.70;99.90;;;;;;5045034;28;20707;-73
2023/10/24 03:59:14;;;;;;;18.77;10.93;;;13.80;99.90;;;;;;5045109;28;20496;-74
2023/10/24 04:01:41;;;;;;;15.00;10.77;;;13.60;99.90;;;;;;5041794;28;20025;-74
2023/10/24 04:04:06;;;;;;;14.15;8.80;;;13.70;99.90;;;;;;5043592;28;20041;-73
2023/10/24 04:06:34;;;;;;;10.70;7.07;;;13.60;99.90;;;;;;5044387;28;20071;-74
2023/10/24 04:09:04;;;;;;;10.13;7.60;;;13.50;99.90;;;;;;5042914;28;20016;-73
2023/10/24 04:11:31;;;;;;;15.63;8.18;;;13.60;99.90;;;;;;5044492;28;20048;-73
2023/10/24 04:13:58;;;;;;;9.90;7.28;;;13.70;99.90;;;;;;5042106;28;20017;-73
2023/10/24 04:16:24;;;;;;;8.02;5.90;;;13.60;99.90;;;;;;5045714;28;20017;-74
2023/10/24 04:18:50;;;;;;;8.25;5.78;;;13.60;99.90;;;;;;5044891;28;20381;-74
2023/10/24 04:21:16;;;;;;;6.85;5.72;;;13.70;99.90;;;;;;5042597;28;20036;-73
2023/10/24 04:23:41;;;;;;;7.03;6.30;;;13.80;99.90;;;;;;5044336;28;20017;-74
2023/10/24 04:26:07;;;;;;;9.13;6.28;;;13.80;99.90;;;;;;5042182;28;20037;-74
2023/10/24 04:28:34;;;;;;;7.80;7.00;;;13.70;99.90;;;;;;5042693;28;20024;-74
2023/10/24 04:30:59;;;;;;;8.80;7.50;;;13.70;99.90;;;;;;5044421;28;20036;-74
2023/10/24 04:33:25;;;;;;;12.27;9.13;;;13.70;99.90;;;;;;5047273;28;20041;-74
2023/10/24 04:35:51;;;;;;;11.43;8.48;;;13.60;99.90;;;;;;5042752;28;20108;-73
2023/10/24 04:38:18;;;;;;;10.77;8.57;;;13.70;99.90;;;;;;5039332;28;20033;-73
2023/10/24 04:40:44;;;;;;;12.35;9.70;;;13.60;99.90;;;;;;5045437;28;20575;-73
2023/10/24 04:43:10;;;;;;;11.50;8.15;;;13.60;99.90;;;;;;5041556;28;20370;-73
2023/10/24 04:45:37;;;;;;;10.10;7.80;;;13.60;99.90;;;;;;5041299;28;20431;-73
2023/10/24 04:48:03;;;;;;;10.52;8.00;;;13.60;99.90;;;;;;5041105;28;20021;-74
2023/10/24 04:50:29;;;;;;;10.30;8.18;;;13.60;99.90;;;;;;5039833;28;20095;-74
2023/10/24 04:52:55;;;;;;;8.57;7.25;;;13.50;99.90;;;;;;5042091;28;20045;-73
2023/10/24 04:55:22;;;;;;;8.27;7.32;;;13.50;99.90;;;;;;5044356;28;20017;-74
2023/10/24 04:57:48;;;;;;;10.38;7.13;;;13.60;99.90;;;;;;5039694;28;20120;-73
2023/10/24 05:00:14;;;;;;;11.82;8.23;;;13.60;99.90;;;;;;5042325;28;20056;-73
2023/10/24 05:02:42;;;;;;;8.48;6.60;;;13.60;99.90;;;;;;5043769;28;20053;-73
2023/10/24 05:05:08;;;;;;;9.70;7.00;;;13.60;99.90;;;;;;5044300;28;20029;-73
2023/10/24 05:07:34;;;;;;;9.55;7.18;;;13.60;99.90;;;;;;5046185;28;20020;-73
2023/10/24 05:10:00;;;;;;;14.73;7.68;;;13.70;99.90;;;;;;5045249;28;20403;-73
2023/10/24 05:12:25;;;;;;;9.93;7.30;;;13.60;99.90;;;;;;5044416;28;20060;-73
2023/10/24 05:14:51;;;;;;;11.77;7.85;;;13.50;99.90;;;;;;5044617;28;20645;-73
2023/10/24 05:17:17;;;;;;;10.90;8.40;;;13.60;99.90;;;;;;5043639;28;20033;-74
2023/10/24 05:19:43;;;;;;;10.07;8.38;;;13.70;99.90;;;;;;5044243;28;20469;-74
2023/10/24 05:22:10;;;;;;;12.15;8.98;;;13.70;99.90;;;;;;5044222;28;20105;-73
2023/10/24 05:24:37;;;;;;;11.02;8.60;;;13.80;99.90;;;;;;5043385;28;20108;-73
2023/10/24 05:27:04;;;;;;;12.65;9.38;;;13.90;99.90;;;;;;5060687;28;20025;-73
2023/10/24 05:29:33;;;;;;;13.15;8.98;;;13.90;99.90;;;;;;5044424;28;20124;-74
2023/10/24 05:31:59;;;;;;;12.07;8.38;;;13.90;99.90;;;;;;5043113;28;20044;-74
2023/10/24 05:34:29;;;;;;;10.35;8.02;;;13.90;99.90;;;;;;5044022;28;20029;-74
2023/10/24 05:36:55;;;;;;;12.57;8.40;;;13.90;99.90;;;;;;5045387;28;20032;-73
2023/10/24 05:39:21;;;;;;;12.82;8.80;;;13.90;99.90;;;;;;5040323;28;20029;-73
2023/10/24 05:41:50;;;;;;;12.88;8.23;;;13.80;99.90;;;;;;5044608;28;20021;-73
2023/10/24 05:44:16;;;;;;;10.70;7.15;;;13.70;99.90;;;;;;5041731;28;20032;-74
2023/10/24 05:46:42;;;;;;;9.50;7.25;;;13.60;99.90;;;;;;5044509;28;20023;-73
2023/10/24 05:49:08;;;;;;;9.55;7.30;;;13.60;99.90;;;;;;5043815;28;20029;-73
2023/10/24 05:51:33;;;;;;;11.23;7.38;;;13.60;99.90;;;;;;5044199;28;20056;-73
2023/10/24 05:53:59;;;;;;;7.85;6.28;;;13.50;99.90;;;;;;5042888;28;20702;-73
2023/10/24 05:56:26;;;;;;;6.95;6.00;;;13.50;99.90;;;;;;5044206;28;20482;-73
2023/10/24 05:58:52;;;;;;;6.28;5.45;;;13.50;99.90;;;;;;5044406;28;20030;-73
2023/10/24 06:01:17;;;;;;;8.32;5.82;;;13.60;99.90;;;;;;5045748;28;20025;-73
2023/10/24 06:03:43;;;;;;;10.25;5.72;;;13.60;99.90;;;;;;5046044;28;20036;-73
2023/10/24 06:06:09;;;;;;;6.40;4.85;;;13.60;99.90;;;;;;5039965;28;20029;-73
2023/10/24 06:08:35;;;;;;;6.43;5.72;;;13.50;99.90;;;;;;5045427;28;20454;-73
2023/10/24 06:11:02;;;;;;;10.20;6.60;;;13.50;99.90;;;;;;5042818;28;20021;-73
2023/10/24 06:13:29;;;;;;;13.00;6.00;;;13.50;99.90;;;;;;5044961;28;20482;-73
2023/10/24 06:15:55;;;;;;;10.93;6.78;;;13.50;99.90;;;;;;5041479;28;20035;-73
2023/10/24 06:18:21;;;;;;;10.25;6.90;;;13.50;99.90;;;;;;5045192;28;20029;-73
2023/10/24 06:20:47;;;;;;;8.52;6.38;;;13.50;99.90;;;;;;5039596;28;20424;-73
2023/10/24 06:23:13;;;;;;;12.32;7.10;;;13.60;99.90;;;;;;5042883;28;20121;-73
2023/10/24 06:25:40;;;;;;;7.55;6.57;;;13.50;99.90;;;;;;5044728;28;20040;-73
2023/10/24 06:28:07;;;;;;;11.40;7.90;;;13.50;99.90;;;;;;5041589;28;20540;-73
2023/10/24 06:30:34;;;;;;;10.13;7.28;;;13.40;99.90;;;;;;5044176;28;20033;-73
2023/10/24 06:32:59;;;;;;;8.30;6.95;;;13.40;99.90;;;;;;5045777;28;20047;-74
2023/10/24 06:35:25;;;;;;;11.88;8.25;;;13.30;99.90;;;;;;5045135;28;20108;-73
2023/10/24 06:37:51;;;;;;;12.60;8.02;;;13.30;99.90;;;;;;5039288;28;20064;-73
2023/10/24 06:40:17;;;;;;;12.50;8.02;;;13.30;99.90;;;;;;5046709;28;20017;-73
2023/10/24 06:42:44;;;;;;;9.52;7.65;;;13.30;99.90;;;;;;5047434;28;20029;-73
2023/10/24 06:45:10;;;;;;;11.63;8.00;;;13.30;99.90;;;;;;5048505;28;21302;-75
2023/10/24 06:47:40;;;;;;;12.07;8.93;;;13.30;99.90;;;;;;5046089;28;20028;-74
2023/10/24 06:50:07;;;;;;;11.90;9.02;;;13.20;99.90;;;;;;5039366;28;20068;-74
2023/10/24 06:52:32;;;;;;;14.93;9.15;;;13.30;99.90;;;;;;5038887;28;20120;-74
2023/10/24 06:54:58;;;;;;;16.20;9.95;;;13.20;99.90;;;;;;5042394;28;20560;-74
2023/10/24 06:57:24;;;;;;;14.45;10.07;;;13.30;99.90;;;;;;5041373;28;20021;-73
2023/10/24 06:59:50;;;;;;;14.40;10.13;;;13.40;99.90;;;;;;5043820;28;20199;-74
2023/10/24 07:02:17;;;;;;;15.15;9.80;;;13.40;99.90;;;;;;5042611;28;20112;-74
2023/10/24 07:04:43;;;;;;;12.40;8.80;;;13.50;99.90;;;;;;5044459;28;20045;-73
2023/10/24 07:07:09;;;;;;;16.73;8.18;;;13.50;99.90;;;;;;5044034;28;20032;-74
2023/10/24 07:09:34;;;;;;;11.52;7.72;;;13.50;99.90;;;;;;5042746;28;20120;-73
2023/10/24 07:12:00;;;;;;;13.63;8.68;;;13.40;99.90;;;;;;5041947;28;20072;-73
2023/10/24 07:14:26;;;;;;;10.00;7.38;;;13.40;99.90;;;;;;5035759;28;20029;-74
2023/10/24 07:16:52;;;;;;;10.32;6.90;;;13.50;99.90;;;;;;5035912;28;20026;-73
2023/10/24 07:19:18;;;;;;;11.70;6.97;;;13.50;99.90;;;;;;5033730;28;20018;-74
2023/10/24 07:21:44;;;;;;;9.93;7.00;;;13.50;99.90;;;;;;5033560;28;20030;-74
2023/10/24 07:24:09;;;;;;;12.80;7.57;;;13.50;99.90;;;;;;5034096;28;20037;-74
2023/10/24 07:26:35;;;;;;;9.38;6.88;;;13.50;99.90;;;;;;5036340;28;20030;-74
2023/10/24 07:29:01;;;;;;;9.57;6.32;;;13.50;99.90;;;;;;5037240;28;20030;-73
2023/10/24 07:31:27;;;;;;;9.38;6.88;;;13.40;99.90;;;;;;5034578;28;20034;-74
2023/10/24 07:33:52;;;;;;;10.18;6.47;;;13.30;99.90;;;;;;5037284;28;20033;-73
2023/10/24 07:36:18;;;;;;;9.27;6.50;;;13.40;99.90;;;;;;5037021;28;20029;-73
2023/10/24 07:38:44;;;;;;;11.00;6.65;;;13.40;99.90;;;;;;5036153;28;20021;-74
2023/10/24 07:41:10;;;;;;;11.38;6.30;;;13.40;99.90;;;;;;5035365;28;20033;-74
2023/10/24 07:43:37;;;;;;;14.20;6.80;;;13.50;99.90;;;;;;5035915;28;20104;-74
2023/10/24 07:46:03;;;;;;;10.70;6.38;;;13.40;99.90;;;;;;5037057;28;20020;-73
2023/10/24 07:48:28;;;;;;;9.27;7.00;;;13.40;99.90;;;;;;5036150;28;20500;-74
2023/10/24 07:50:56;;;;;;;11.65;6.95;;;13.40;99.90;;;;;;5034074;28;20028;-74
2023/10/24 07:53:23;;;;;;;10.73;7.05;;;13.40;99.90;;;;;;5037276;28;20394;-74
2023/10/24 07:55:49;;;;;;;10.65;6.72;;;13.40;99.90;;;;;;5036128;28;20091;-73
2023/10/24 07:58:18;;;;;;;10.80;6.60;;;13.50;99.90;;;;;;5036834;28;20036;-75
2023/10/24 08:00:48;;;;;;;10.77;7.10;;;13.40;99.90;;;;;;5032134;28;20483;-74
2023/10/24 08:03:18;;;;;;;7.13;5.68;;;13.50;99.90;;;;;;5029358;28;20013;-74
2023/10/24 08:05:44;;;;;;;8.95;5.82;;;13.50;99.90;;;;;;5036895;28;20029;-74
2023/10/24 08:08:09;;;;;;;8.27;5.88;;;13.60;99.90;;;;;;5036184;28;20021;-74
2023/10/24 08:10:35;;;;;;;13.70;6.45;;;13.60;99.90;;;;;;5035956;28;20501;-75
2023/10/24 08:13:01;;;;;;;8.65;6.47;;;13.60;99.90;;;;;;5035927;28;20185;-74
2023/10/24 08:15:27;;;;;;;12.52;6.35;;;13.60;99.90;;;;;;5036183;28;20436;-75
2023/10/24 08:17:53;;;;;;;9.65;6.55;;;13.70;99.90;;;;;;5034902;28;20474;-75
2023/10/24 08:20:20;;;;;;;11.00;7.10;;;13.60;99.90;;;;;;5030576;28;20127;-74
2023/10/24 08:22:46;;;;;;;10.50;7.00;;;13.60;99.90;;;;;;5031408;28;20029;-74
2023/10/24 08:25:12;;;;;;;9.68;7.43;;;13.70;99.90;;;;;;5032607;28;20083;-74
2023/10/24 08:27:38;;;;;;;12.30;7.70;;;13.70;99.90;;;;;;5034057;28;20086;-75
2023/10/24 08:30:04;;;;;;;8.75;7.82;;;13.60;99.90;;;;;;5034517;28;20029;-76
2023/10/24 08:32:30;;;;;;;11.23;7.78;;;13.70;99.90;;;;;;5031894;28;20037;-75
2023/10/24 08:34:56;;;;;;;8.00;6.95;;;13.70;99.90;;;;;;5030032;28;20037;-75
2023/10/24 08:37:22;;;;;;;12.52;7.13;;;13.70;99.90;;;;;;5030776;28;20043;-75
2023/10/24 08:39:48;;;;;;;7.80;6.10;;;13.90;99.90;;;;;;5030235;28;20028;-75
2023/10/24 08:42:15;;;;;;;7.28;6.55;;;13.90;99.90;;;;;;5030705;28;20021;-75
2023/10/24 08:44:42;;;;;;;8.65;6.03;;;14.00;99.90;;;;;;5032988;28;20021;-74
2023/10/24 08:47:09;;;;;;;5.78;5.28;;;14.10;99.90;;;;;;5035820;28;20017;-75
2023/10/24 08:49:38;;;;;;;5.60;5.05;;;14.20;99.90;;;;;;5030994;28;20098;-75
2023/10/24 08:52:05;;;;;;;6.53;5.05;;;14.20;99.90;;;;;;5031746;28;20090;-75
2023/10/24 08:54:51;;;;;;;8.88;4.57;;;14.30;99.90;;;;;;5009803;28;20044;-75
2023/10/24 08:57:24;;;;;;;6.75;4.28;;;14.40;99.90;;;;;;5032306;28;20474;-75
2023/10/24 08:59:52;;;;;;;5.45;4.40;;;14.40;99.90;;;;;;5031012;28;20030;-75
2023/10/24 09:02:19;;;;;;;6.75;4.80;;;14.40;99.90;;;;;;5042662;28;20033;-74
2023/10/24 09:04:44;;;;;;;8.40;4.47;;;14.40;99.90;;;;;;5031730;28;20055;-75
2023/10/24 09:07:10;;;;;;;7.03;4.22;;;14.40;99.90;;;;;;5031150;28;20048;-75
2023/10/24 09:09:36;;;;;;;6.72;4.35;;;14.40;99.90;;;;;;5031658;28;20036;-75
2023/10/24 09:12:05;;;;;;;8.75;4.30;;;14.50;99.90;;;;;;5032090;28;20112;-74
2023/10/24 09:14:30;;;;;;;8.20;4.60;;;14.60;99.90;;;;;;5030869;28;20079;-76
2023/10/24 09:17:03;;;;;;;5.40;4.60;;;14.60;99.90;;;;;;5035153;28;20022;-75
2023/10/24 09:19:29;;;;;;;6.35;3.88;;;14.50;99.90;;;;;;5031212;28;20132;-75
2023/10/24 09:21:56;;;;;;;6.00;4.30;;;14.60;99.90;;;;;;5030354;28;20027;-75
2023/10/24 09:24:22;;;;;;;6.50;4.40;;;14.60;99.90;;;;;;5030928;28;20025;-75
2023/10/24 09:26:55;;;;;;;5.90;4.18;;;14.60;99.90;;;;;;5030014;28;20475;-75
2023/10/24 09:29:21;;;;;;;4.95;4.32;;;14.60;99.90;;;;;;5031847;28;20104;-74
2023/10/24 09:31:48;;;;;;;6.53;3.70;;;14.60;99.90;;;;;;5027061;28;20033;-75
2023/10/24 09:34:16;;;;;;;6.55;4.20;;;14.60;99.90;;;;;;5034335;28;20493;-75
2023/10/24 09:36:42;;;;;;;9.48;4.15;;;14.60;99.90;;;;;;5032491;28;20023;-75
2023/10/24 09:39:12;;;;;;;4.40;4.00;;;14.60;99.90;;;;;;5038822;28;20021;-75
2023/10/24 09:41:40;;;;;;;5.40;3.70;;;14.60;99.90;;;;;;5032302;28;20466;-75
2023/10/24 09:44:07;;;;;;;8.18;3.97;;;14.70;99.90;;;;;;5032209;28;20021;-75
2023/10/24 09:46:35;;;;;;;6.10;3.88;;;14.80;99.90;;;;;;5035000;28;20045;-75
2023/10/24 09:49:01;;;;;;;5.22;3.63;;;14.60;99.90;;;;;;5037221;28;20079;-75
2023/10/24 09:51:28;;;;;;;6.97;3.83;;;14.60;99.90;;;;;;5035040;28;20033;-75
2023/10/24 10:58:10;;;;;;;8.32;4.50;;;12.90;99.90;;;;;;5060021;27;20559;-77
2023/10/24 11:00:48;;;;;;;5.90;5.18;;;13.50;99.90;;;;;;5012907;28;20390;-78
2023/10/24 11:03:25;;;;;;;5.70;5.15;;;13.80;99.90;;;;;;5015605;28;20029;-77
2023/10/24 11:05:51;;;;;;;7.22;5.32;;;14.00;99.90;;;;;;5018975;28;20104;-77
2023/10/24 11:08:22;;;;;;;6.90;5.18;;;14.20;99.90;;;;;;5019288;28;20548;-77
2023/10/24 11:10:55;;;;;;;6.05;4.60;;;14.10;99.90;;;;;;5018717;28;20014;-77
2023/10/24 11:13:41;;;;;;;3.67;3.38;;;14.10;99.90;;;;;;5017195;28;20036;-77
2023/10/24 11:16:11;;;;;;;7.72;3.67;;;14.20;99.90;;;;;;5018553;28;20029;-77
2023/10/24 11:18:38;;;;;;;5.30;4.18;;;14.30;99.90;;;;;;5019853;28;20053;-77
2023/10/24 11:21:07;;;;;;;4.93;3.67;;;14.20;99.90;;;;;;5017742;28;20010;-77
2023/10/24 11:23:34;;;;;;;6.57;3.05;;;14.30;99.90;;;;;;5011623;28;20084;-77
2023/10/24 11:26:00;;;;;;;7.28;2.60;;;14.30;99.90;;;;;;5017982;28;20095;-77
2023/10/24 11:28:27;;;;;;;8.32;3.35;;;14.30;99.90;;;;;;5020105;28;20399;-78
2023/10/24 11:30:57;;;;;;;4.90;2.47;;;14.30;99.90;;;;;;5021784;28;20018;-77
2023/10/24 11:33:24;;;;;;;3.35;2.03;;;14.20;99.90;;;;;;5021418;28;20095;-78
2023/10/24 11:35:50;;;;;;;4.00;1.98;;;14.20;99.90;;;;;;5020938;28;20091;-77
2023/10/24 11:38:16;;;;;;;6.18;2.40;;;14.20;99.90;;;;;;5023994;28;20026;-77
2023/10/24 11:40:46;;;;;;;3.67;2.28;;;14.20;99.90;;;;;;5018923;28;20527;-82
2023/10/24 11:43:14;;;;;;;4.72;2.80;;;14.20;99.90;;;;;;5022330;28;20109;-76
2023/10/24 11:45:40;;;;;;;3.10;2.40;;;14.20;99.90;;;;;;5021943;28;20034;-77
2023/10/24 11:48:06;;;;;;;5.07;2.83;;;14.20;99.90;;;;;;5023116;28;20473;-77
2023/10/24 11:50:46;;;;;;;5.75;2.85;;;14.20;99.90;;;;;;5021616;28;20022;-79
2023/10/24 11:53:19;;;;;;;4.95;2.60;;;14.20;99.90;;;;;;5022603;28;20077;-78
2023/10/24 11:55:46;;;;;;;3.80;3.45;;;14.10;99.90;;;;;;5023638;28;20113;-77
2023/10/24 11:58:11;;;;;;;6.75;3.38;;;14.00;99.90;;;;;;5006560;28;20026;-77
2023/10/24 12:00:41;;;;;;;4.00;3.28;;;14.00;99.90;;;;;;5005057;28;20018;-78
2023/10/24 12:03:08;;;;;;;6.70;3.55;;;14.00;99.90;;;;;;5007067;28;20034;-77
2023/10/24 12:05:34;;;;;;;4.95;3.40;;;14.00;99.90;;;;;;5006356;28;20022;-77
2023/10/24 12:08:02;;;;;;;4.88;3.05;;;14.10;99.90;;;;;;5001921;28;20032;-77
2023/10/24 12:10:32;;;;;;;6.50;3.28;;;14.10;99.90;;;;;;5000055;28;20021;-77
2023/10/24 12:13:02;;;;;;;3.40;3.03;;;14.10;99.90;;;;;;5001262;28;20018;-76
2023/10/24 12:15:29;;;;;;;4.28;3.88;;;14.20;99.90;;;;;;5000817;28;20048;-76
2023/10/24 12:17:57;;;;;;;7.35;4.10;;;14.00;99.90;;;;;;5002992;28;20621;-76
2023/10/24 12:20:22;;;;;;;5.60;4.57;;;13.90;99.90;;;;;;5003987;28;21074;-76
2023/10/24 12:22:49;;;;;;;6.28;3.83;;;14.00;99.90;;;;;;5005361;28;20156;-77
2023/10/24 12:25:17;;;;;;;8.20;4.40;;;14.20;99.90;;;;;;5006670;28;20057;-77
2023/10/24 12:27:44;;;;;;;4.43;3.35;;;14.30;99.90;;;;;;4998054;28;20018;-77
2023/10/24 12:30:10;;;;;;;2.92;2.67;;;14.40;99.90;;;;;;5003824;28;20026;-77
2023/10/24 12:32:36;;;;;;;5.10;3.50;;;14.60;99.90;;;;;;4998152;28;20021;-77
2023/10/24 12:35:03;;;;;;;2.63;2.25;;;14.60;99.90;;;;;;5004956;28;20124;-77
2023/10/24 12:37:29;;;;;;;2.90;2.20;;;14.60;99.90;;;;;;4998394;28;20022;-77
2023/10/24 12:39:54;;;;;;;2.53;2.20;;;14.60;99.90;;;;;;5000241;28;20112;-76
2023/10/24 12:42:20;;;;;;;2.13;1.92;;;14.80;99.90;;;;;;5018744;28;20354;-76
2023/10/24 12:44:46;;;;;;;2.92;1.80;;;14.80;99.90;;;;;;5000844;28;20018;-76
2023/10/24 12:47:12;;;;;;;2.83;2.30;;;14.80;99.90;;;;;;5002602;28;20040;-77
2023/10/24 12:49:38;;;;;;;3.33;1.95;;;14.80;99.90;;;;;;4996938;28;20465;-77
2023/10/24 12:52:04;;;;;;;2.88;1.70;;;14.90;99.90;;;;;;5001727;28;20073;-77
2023/10/24 12:54:29;;;;;;;3.10;1.80;;;14.90;99.90;;;;;;5002018;28;20030;-77
2023/10/24 12:56:55;;;;;;;3.85;1.70;;;14.80;99.90;;;;;;5001071;28;20033;-76
2023/10/24 12:59:21;;;;;;;3.72;1.52;;;14.80;99.90;;;;;;5001130;28;20444;-76
2023/10/24 13:01:47;;;;;;;4.32;1.20;;;14.80;99.90;;;;;;5001513;28;20122;-76
2023/10/24 13:04:13;;;;;;;1.30;0.85;;;14.90;99.90;;;;;;5003340;28;20115;-77
2023/10/24 13:06:39;;;;;;;1.25;0.95;;;14.80;99.90;;;;;;5000646;28;20101;-77
2023/10/24 13:09:07;;;;;;;2.08;1.15;;;14.80;99.90;;;;;;4998627;28;20448;-77
2023/10/24 13:11:32;;;;;;;1.70;1.38;;;14.80;99.90;;;;;;4998666;28;20068;-77
2023/10/24 13:13:58;;;;;;;6.43;1.40;;;14.90;99.90;;;;;;5003277;28;20056;-76
2023/10/24 13:16:24;;;;;;;1.98;1.52;;;14.80;99.90;;;;;;4999942;28;20030;-76
2023/10/24 13:18:50;;;;;;;2.30;1.00;;;14.90;99.90;;;;;;5001025;28;20100;-76
2023/10/24 13:21:16;;;;;;;3.67;1.15;;;14.80;99.90;;;;;;5004833;28;20010;-76
2023/10/24 13:23:41;;;;;;;2.97;0.80;;;14.80;99.90;;;;;;5006296;28;20056;-76
2023/10/24 13:26:07;;;;;;;7.70;1.45;;;14.80;99.90;;;;;;5007469;28;20494;-77
2023/10/24 13:28:33;;;;;;;1.88;0.88;;;14.80;99.90;;;;;;5007877;28;20030;-76
2023/10/24 13:30:59;;;;;;;1.58;0.85;;;14.90;99.90;;;;;;5004407;28;20374;-76
2023/10/24 13:33:24;;;;;;;1.15;0.77;;;14.90;99.90;;;;;;5008638;28;20041;-76
2023/10/24 13:35:50;;;;;;;1.30;0.90;;;14.70;99.90;;;;;;5002205;28;20113;-76
2023/10/24 13:38:16;;;;;;;4.38;0.95;;;14.70;99.90;;;;;;5011605;28;20057;-76
2023/10/24 13:40:42;;;;;;;1.90;0.70;;;14.70;99.90;;;;;;4995831;28;20065;-76